Time;durP1;ratioP1;P1;durP2;ratioP2;P2;SDS_P1;SDS_P2;PMS_P1;PMS_P2;Temp;Humidity;BMP_temperature;BMP_pressure;BME280_temperature;BME280_humidity;BME280_pressure;Samples;Min_cycle;Max_cycle;Signal;HPM_P1;HPM_P2
2022/01/04 00:01:25;;;;;;;5.73;1.50;;;;;;;;;;4985290;28;20205;-84
2022/01/04 00:03:52;;;;;;;5.83;1.13;;;;;;;;;;4989737;28;20280;-84
2022/01/04 00:06:19;;;;;;;3.53;1.00;;;;;;;;;;4996882;28;20224;-84
2022/01/04 00:08:46;;;;;;;2.90;1.03;;;;;;;;;;4989194;28;20237;-84
2022/01/04 00:11:18;;;;;;;3.20;1.23;;;;;;;;;;4983398;28;20209;-85
2022/01/04 00:13:45;;;;;;;4.10;1.83;;;;;;;;;;4986519;28;20618;-84
2022/01/04 00:16:13;;;;;;;7.13;1.27;;;;;;;;;;4988495;28;20212;-83
2022/01/04 00:18:41;;;;;;;2.87;1.30;;;;;;;;;;4986865;28;20277;-84
2022/01/04 00:21:08;;;;;;;5.70;1.57;;;;;;;;;;4991841;28;20221;-85
2022/01/04 00:23:35;;;;;;;2.57;1.57;;;;;;;;;;4992065;28;20202;-86
2022/01/04 00:26:03;;;;;;;3.27;1.63;;;;;;;;;;4989427;28;20720;-83
2022/01/04 00:28:32;;;;;;;6.47;2.00;;;;;;;;;;4990825;28;20235;-85
2022/01/04 00:30:59;;;;;;;5.80;1.97;;;;;;;;;;4996755;28;20243;-85
2022/01/04 00:33:26;;;;;;;4.07;1.80;;;;;;;;;;4991106;28;20227;-85
2022/01/04 00:35:53;;;;;;;6.93;1.73;;;;;;;;;;4992548;28;20296;-85
2022/01/04 00:38:20;;;;;;;3.57;2.00;;;;;;;;;;4995011;28;21563;-87
2022/01/04 00:40:48;;;;;;;3.80;1.90;;;;;;;;;;4991660;28;20260;-84
2022/01/04 00:43:15;;;;;;;8.10;2.17;;;;;;;;;;4995123;28;20261;-86
2022/01/04 00:45:45;;;;;;;7.90;2.30;;;;;;;;;;4989857;28;20201;-86
2022/01/04 00:50:57;;;;;;;6.27;2.53;;;;;;;;;;4992249;28;20208;-85
2022/01/04 00:53:24;;;;;;;7.80;2.07;;;;;;;;;;4990479;28;20229;-84
2022/01/04 00:55:51;;;;;;;3.83;1.30;;;;;;;;;;4994127;28;20206;-84
2022/01/04 00:58:19;;;;;;;4.73;1.90;;;;;;;;;;4992828;28;20306;-84
2022/01/04 01:00:47;;;;;;;4.03;1.73;;;;;;;;;;4989803;28;20221;-84
2022/01/04 01:03:14;;;;;;;5.50;2.17;;;;;;;;;;4990601;28;20208;-84
2022/01/04 01:05:42;;;;;;;4.97;1.93;;;;;;;;;;4988729;28;20206;-84
2022/01/04 01:08:09;;;;;;;3.97;1.77;;;;;;;;;;4993264;28;20264;-85
2022/01/04 01:10:45;;;;;;;4.33;1.80;;;;;;;;;;4985622;28;20691;-85
2022/01/04 01:13:14;;;;;;;5.70;2.10;;;;;;;;;;4990350;28;20679;-85
2022/01/04 01:15:44;;;;;;;5.27;2.47;;;;;;;;;;4989814;28;20243;-84
2022/01/04 01:18:13;;;;;;;8.40;2.33;;;;;;;;;;4989115;28;20321;-87
2022/01/04 01:20:40;;;;;;;5.27;1.90;;;;;;;;;;4989060;28;20233;-85
2022/01/04 01:23:07;;;;;;;6.20;1.80;;;;;;;;;;4988938;28;20203;-85
2022/01/04 01:25:35;;;;;;;2.97;1.37;;;;;;;;;;4979860;28;20556;-83
2022/01/04 01:28:02;;;;;;;5.10;1.30;;;;;;;;;;4983991;28;20240;-84
2022/01/04 01:30:32;;;;;;;3.23;1.27;;;;;;;;;;4990082;28;20310;-85
2022/01/04 01:32:59;;;;;;;3.57;1.00;;;;;;;;;;4984984;28;20232;-82
2022/01/04 01:35:28;;;;;;;3.70;1.27;;;;;;;;;;4983007;28;20255;-84
2022/01/04 01:37:55;;;;;;;4.47;1.00;;;;;;;;;;4988775;28;21003;-84
2022/01/04 01:40:22;;;;;;;1.70;0.60;;;;;;;;;;4988434;28;20279;-85
2022/01/04 01:42:49;;;;;;;3.07;1.07;;;;;;;;;;4986019;28;20240;-84
2022/01/04 01:45:17;;;;;;;6.53;1.10;;;;;;;;;;4988621;28;20200;-85
2022/01/04 01:47:45;;;;;;;1.60;0.67;;;;;;;;;;4989181;28;20300;-85
2022/01/04 01:50:12;;;;;;;0.83;0.40;;;;;;;;;;4988100;28;20722;-85
2022/01/04 01:52:41;;;;;;;0.80;0.40;;;;;;;;;;4991670;28;20209;-84
2022/01/04 01:55:09;;;;;;;1.30;0.33;;;;;;;;;;4990131;28;20219;-85
2022/01/04 01:57:37;;;;;;;2.83;0.50;;;;;;;;;;4989199;28;20662;-85
2022/01/04 02:00:05;;;;;;;1.13;0.40;;;;;;;;;;4993604;28;20274;-85
2022/01/04 02:02:32;;;;;;;2.70;0.77;;;;;;;;;;4991331;28;20229;-85
2022/01/04 02:04:59;;;;;;;3.17;0.70;;;;;;;;;;4984527;28;20305;-83
2022/01/04 02:07:27;;;;;;;1.23;0.60;;;;;;;;;;4983644;28;20228;-84
2022/01/04 02:10:02;;;;;;;1.20;0.60;;;;;;;;;;4985194;28;20765;-84
2022/01/04 02:12:31;;;;;;;1.23;0.90;;;;;;;;;;4984972;28;20205;-83
2022/01/04 02:14:58;;;;;;;1.13;0.60;;;;;;;;;;4990800;28;20236;-84
2022/01/04 02:17:25;;;;;;;1.00;0.57;;;;;;;;;;4987989;28;20313;-84
2022/01/04 02:19:55;;;;;;;2.57;0.60;;;;;;;;;;4986424;28;20225;-84
2022/01/04 02:22:22;;;;;;;2.63;0.63;;;;;;;;;;4984843;28;20285;-84
2022/01/04 02:24:49;;;;;;;0.93;0.53;;;;;;;;;;4984413;28;20225;-84
2022/01/04 02:27:16;;;;;;;0.90;0.50;;;;;;;;;;4986955;28;20316;-84
2022/01/04 02:29:45;;;;;;;1.20;0.60;;;;;;;;;;4989913;28;20205;-85
2022/01/04 02:32:12;;;;;;;3.00;0.63;;;;;;;;;;4988448;28;20737;-84
2022/01/04 02:34:39;;;;;;;3.37;1.40;;;;;;;;;;5000509;28;20229;-82
2022/01/04 02:37:08;;;;;;;2.60;1.00;;;;;;;;;;5006293;28;20209;-85
2022/01/04 02:39:36;;;;;;;3.53;0.90;;;;;;;;;;5008850;28;20244;-85
2022/01/04 02:42:04;;;;;;;3.17;1.10;;;;;;;;;;5002390;28;20216;-82
2022/01/04 02:44:31;;;;;;;4.00;0.73;;;;;;;;;;4994264;28;20658;-83
2022/01/04 02:46:58;;;;;;;2.97;0.90;;;;;;;;;;4986090;28;20665;-83
2022/01/04 02:49:25;;;;;;;5.23;1.13;;;;;;;;;;4985931;28;20202;-83
2022/01/04 02:51:53;;;;;;;4.00;0.60;;;;;;;;;;4988198;28;20938;-84
2022/01/04 02:54:21;;;;;;;1.90;0.67;;;;;;;;;;4990264;28;20579;-84
2022/01/04 02:56:49;;;;;;;1.40;0.70;;;;;;;;;;4986248;28;20494;-85
2022/01/04 02:59:16;;;;;;;2.77;0.90;;;;;;;;;;4991718;28;20225;-85
2022/01/04 03:01:43;;;;;;;1.53;1.00;;;;;;;;;;4985721;28;20312;-84
2022/01/04 03:04:10;;;;;;;5.67;1.17;;;;;;;;;;4988531;28;20202;-85
2022/01/04 03:06:38;;;;;;;2.43;1.13;;;;;;;;;;4994545;28;20205;-84
2022/01/04 03:09:06;;;;;;;4.27;0.93;;;;;;;;;;4991977;28;20332;-84
2022/01/04 03:11:35;;;;;;;4.27;0.77;;;;;;;;;;4989946;28;20201;-84
2022/01/04 03:14:02;;;;;;;2.03;1.13;;;;;;;;;;4995175;28;20561;-83
2022/01/04 03:16:29;;;;;;;4.07;1.07;;;;;;;;;;4985484;28;20568;-83
2022/01/04 03:19:06;;;;;;;3.23;0.90;;;;;;;;;;4987050;28;20232;-84
2022/01/04 03:21:33;;;;;;;2.67;0.90;;;;;;;;;;4986134;28;20689;-83
2022/01/04 03:24:00;;;;;;;1.63;0.93;;;;;;;;;;4993042;28;20213;-83
2022/01/04 03:26:27;;;;;;;2.67;0.93;;;;;;;;;;4988638;28;20241;-84
2022/01/04 03:28:56;;;;;;;6.07;1.30;;;;;;;;;;4991945;28;20260;-84
2022/01/04 03:31:23;;;;;;;2.70;1.10;;;;;;;;;;4992793;28;20295;-83
2022/01/04 03:33:51;;;;;;;3.53;1.10;;;;;;;;;;4996958;28;20222;-83
2022/01/04 03:36:20;;;;;;;3.13;1.10;;;;;;;;;;4987898;28;20310;-83
2022/01/04 03:38:48;;;;;;;4.00;1.27;;;;;;;;;;4986574;28;20222;-84
2022/01/04 03:41:15;;;;;;;2.27;1.30;;;;;;;;;;4984241;28;20200;-83
2022/01/04 03:43:43;;;;;;;5.10;1.93;;;;;;;;;;4987769;28;20236;-83
2022/01/04 03:46:12;;;;;;;3.07;1.50;;;;;;;;;;4993112;28;20728;-84
2022/01/04 03:48:39;;;;;;;4.07;1.40;;;;;;;;;;4985723;28;20293;-84
2022/01/04 03:51:07;;;;;;;3.67;1.17;;;;;;;;;;4981878;28;20218;-83
2022/01/04 03:53:35;;;;;;;3.43;1.20;;;;;;;;;;4986512;28;20235;-84
2022/01/04 03:56:02;;;;;;;4.67;1.33;;;;;;;;;;4989539;28;20231;-84
2022/01/04 03:58:29;;;;;;;3.27;1.30;;;;;;;;;;4993127;28;20225;-83
2022/01/04 04:00:56;;;;;;;3.53;1.57;;;;;;;;;;4983617;28;20650;-84
2022/01/04 04:03:25;;;;;;;2.83;1.30;;;;;;;;;;4979766;28;20218;-84
2022/01/04 04:05:52;;;;;;;1.63;1.00;;;;;;;;;;4982583;28;20685;-84
2022/01/04 04:08:19;;;;;;;3.27;1.50;;;;;;;;;;4984047;28;20248;-85
2022/01/04 04:10:46;;;;;;;2.40;1.40;;;;;;;;;;4981914;28;20287;-85
2022/01/04 04:13:13;;;;;;;7.57;1.43;;;;;;;;;;4985524;28;20296;-85
2022/01/04 04:15:41;;;;;;;1.67;1.07;;;;;;;;;;4981542;28;20211;-85
2022/01/04 04:18:09;;;;;;;3.20;1.23;;;;;;;;;;4983891;28;20232;-84
2022/01/04 04:20:39;;;;;;;4.07;1.40;;;;;;;;;;4980671;28;20311;-84
2022/01/04 04:23:07;;;;;;;6.83;1.57;;;;;;;;;;4986677;28;20201;-85
2022/01/04 04:25:34;;;;;;;3.63;1.30;;;;;;;;;;4982123;28;20205;-84
2022/01/04 04:28:01;;;;;;;4.20;1.30;;;;;;;;;;4983531;28;20228;-84
2022/01/04 04:30:28;;;;;;;2.00;1.20;;;;;;;;;;4981620;28;20196;-84
2022/01/04 04:32:55;;;;;;;8.40;2.27;;;;;;;;;;4982785;28;20746;-83
2022/01/04 04:35:23;;;;;;;5.87;1.30;;;;;;;;;;4986265;28;20304;-83
2022/01/04 04:37:52;;;;;;;2.83;1.27;;;;;;;;;;4994858;28;20593;-84
2022/01/04 04:40:19;;;;;;;2.10;1.20;;;;;;;;;;4991223;28;20384;-83
2022/01/04 04:42:46;;;;;;;3.63;1.77;;;;;;;;;;4981996;28;20202;-85
2022/01/04 04:45:13;;;;;;;4.77;1.63;;;;;;;;;;4980828;28;20208;-83
2022/01/04 04:47:40;;;;;;;2.90;1.53;;;;;;;;;;4980270;28;20775;-82
2022/01/04 04:50:08;;;;;;;5.10;1.70;;;;;;;;;;4980935;28;20212;-85
2022/01/04 04:52:36;;;;;;;4.87;2.10;;;;;;;;;;4985903;28;20303;-84
2022/01/04 04:55:04;;;;;;;5.37;2.20;;;;;;;;;;4987411;28;20256;-84
2022/01/04 04:57:32;;;;;;;4.67;1.70;;;;;;;;;;4990937;28;20870;-83
2022/01/04 04:59:59;;;;;;;7.37;2.30;;;;;;;;;;4987041;28;20235;-83
2022/01/04 05:02:26;;;;;;;7.27;2.80;;;;;;;;;;4987087;28;20200;-84
2022/01/04 05:04:54;;;;;;;10.87;3.00;;;;;;;;;;4982723;28;20771;-83
2022/01/04 05:07:21;;;;;;;5.90;2.93;;;;;;;;;;4983387;28;20246;-85
2022/01/04 05:09:48;;;;;;;8.40;3.83;;;;;;;;;;4980405;28;20768;-84
2022/01/04 05:12:16;;;;;;;7.63;4.07;;;;;;;;;;4982545;28;20241;-83
2022/01/04 05:14:46;;;;;;;8.37;3.97;;;;;;;;;;4981924;28;20656;-84
2022/01/04 05:17:13;;;;;;;10.60;4.17;;;;;;;;;;4983600;28;20225;-84
2022/01/04 05:19:41;;;;;;;7.10;4.00;;;;;;;;;;4979501;28;20320;-85
2022/01/04 05:22:08;;;;;;;11.37;4.50;;;;;;;;;;4980554;28;20285;-85
2022/01/04 05:24:35;;;;;;;12.40;4.80;;;;;;;;;;4983006;28;20295;-82
2022/01/04 05:27:03;;;;;;;9.67;5.00;;;;;;;;;;4981372;28;20670;-84
2022/01/04 05:29:32;;;;;;;12.50;5.40;;;;;;;;;;4983665;28;20608;-87
2022/01/04 05:31:59;;;;;;;13.40;6.27;;;;;;;;;;4982006;28;20677;-84
2022/01/04 05:34:26;;;;;;;10.73;5.33;;;;;;;;;;4983799;28;20308;-84
2022/01/04 05:36:53;;;;;;;12.00;5.07;;;;;;;;;;4981198;28;20268;-85
2022/01/04 05:39:21;;;;;;;11.53;4.80;;;;;;;;;;4985222;28;20254;-84
2022/01/04 05:41:48;;;;;;;11.10;5.00;;;;;;;;;;4988625;28;20863;-84
2022/01/04 05:44:16;;;;;;;11.00;5.07;;;;;;;;;;4992034;28;20239;-81
2022/01/04 05:46:44;;;;;;;8.20;4.30;;;;;;;;;;4983549;28;20236;-85
2022/01/04 05:49:14;;;;;;;10.53;4.60;;;;;;;;;;4982300;28;20229;-85
2022/01/04 05:51:42;;;;;;;9.13;4.53;;;;;;;;;;4984503;28;20229;-85
2022/01/04 05:54:10;;;;;;;9.27;4.87;;;;;;;;;;4987496;28;20213;-85
2022/01/04 05:56:37;;;;;;;11.97;4.93;;;;;;;;;;4989022;28;20209;-85
2022/01/04 05:59:04;;;;;;;10.27;4.60;;;;;;;;;;4987175;28;20306;-85
2022/01/04 06:01:31;;;;;;;10.77;4.47;;;;;;;;;;4987761;28;20296;-85
2022/01/04 06:04:00;;;;;;;8.67;4.13;;;;;;;;;;4985652;28;20219;-84
2022/01/04 06:06:27;;;;;;;8.27;4.10;;;;;;;;;;4980088;28;20286;-83
2022/01/04 06:08:54;;;;;;;7.47;3.70;;;;;;;;;;4982078;28;20251;-83
2022/01/04 06:11:56;;;;;;;10.30;4.57;;;;;;;;;;4984795;28;20217;-83
2022/01/04 06:17:09;;;;;;;8.73;4.03;;;;;;;;;;4990856;28;20677;-82
2022/01/04 06:19:38;;;;;;;8.80;3.40;;;;;;;;;;4987972;28;20254;-83
2022/01/04 06:22:06;;;;;;;5.47;2.60;;;;;;;;;;4986781;28;20272;-83
2022/01/04 06:24:33;;;;;;;6.63;2.80;;;;;;;;;;4985637;28;20232;-82
2022/01/04 06:27:00;;;;;;;4.63;2.00;;;;;;;;;;4983290;28;20640;-83
2022/01/04 06:29:28;;;;;;;4.83;2.07;;;;;;;;;;4985297;28;20778;-83
2022/01/04 06:31:55;;;;;;;8.77;2.43;;;;;;;;;;4985076;28;20296;-84
2022/01/04 06:34:22;;;;;;;2.87;1.20;;;;;;;;;;4986026;28;20662;-83
2022/01/04 06:36:51;;;;;;;2.60;1.33;;;;;;;;;;4984157;28;20292;-83
2022/01/04 06:39:18;;;;;;;2.60;0.83;;;;;;;;;;4985872;28;20241;-84
2022/01/04 06:41:45;;;;;;;1.20;0.63;;;;;;;;;;4986126;28;20229;-84
2022/01/04 06:44:12;;;;;;;2.30;0.87;;;;;;;;;;4982644;28;20929;-81
2022/01/04 06:46:45;;;;;;;0.73;0.40;;;;;;;;;;4996941;28;20349;-81
2022/01/04 06:49:12;;;;;;;0.80;0.50;;;;;;;;;;5003786;28;20220;-81
2022/01/04 06:51:39;;;;;;;1.13;0.40;;;;;;;;;;4999930;28;20231;-81
2022/01/04 06:54:08;;;;;;;1.17;0.70;;;;;;;;;;4984078;28;20202;-82
2022/01/04 06:56:35;;;;;;;1.33;0.60;;;;;;;;;;4988816;28;20542;-83
2022/01/04 06:59:03;;;;;;;1.23;0.50;;;;;;;;;;4983290;28;20311;-82
2022/01/04 07:01:30;;;;;;;1.73;0.60;;;;;;;;;;4986663;28;20276;-83
2022/01/04 07:03:57;;;;;;;1.83;0.60;;;;;;;;;;4993273;28;20246;-83
2022/01/04 07:06:24;;;;;;;5.87;1.00;;;;;;;;;;4984186;28;20569;-82
2022/01/04 07:08:52;;;;;;;1.07;0.60;;;;;;;;;;4984286;28;20233;-83
2022/01/04 07:11:20;;;;;;;1.40;0.53;;;;;;;;;;4986708;28;20267;-82
2022/01/04 07:13:48;;;;;;;5.27;0.70;;;;;;;;;;4987605;28;20251;-82
2022/01/04 07:16:15;;;;;;;1.80;0.70;;;;;;;;;;4986462;28;20685;-83
2022/01/04 07:18:46;;;;;;;1.37;0.60;;;;;;;;;;4984033;28;20257;-84
2022/01/04 07:21:13;;;;;;;1.27;0.40;;;;;;;;;;4979635;28;20599;-81
2022/01/04 07:23:41;;;;;;;5.37;1.07;;;;;;;;;;4982229;28;20213;-83
2022/01/04 07:26:11;;;;;;;1.53;0.73;;;;;;;;;;4983055;28;20209;-82
2022/01/04 07:28:41;;;;;;;1.53;0.67;;;;;;;;;;4985027;28;20255;-82
2022/01/04 07:31:08;;;;;;;4.23;0.50;;;;;;;;;;4985480;28;20296;-82
2022/01/04 07:33:35;;;;;;;1.43;0.70;;;;;;;;;;4992740;28;20235;-83
2022/01/04 07:36:03;;;;;;;2.20;1.00;;;;;;;;;;4989864;28;20285;-84
2022/01/04 07:38:30;;;;;;;3.53;0.90;;;;;;;;;;4991639;28;20245;-82
2022/01/04 07:40:57;;;;;;;2.83;1.00;;;;;;;;;;4989412;28;20237;-84
2022/01/04 07:43:24;;;;;;;7.43;1.27;;;;;;;;;;4994560;28;20209;-82
2022/01/04 07:45:53;;;;;;;3.97;1.07;;;;;;;;;;4990050;28;20689;-82
2022/01/04 07:48:21;;;;;;;4.50;1.20;;;;;;;;;;4989264;28;20582;-82
2022/01/04 07:50:49;;;;;;;1.30;0.70;;;;;;;;;;4990432;28;20292;-83
2022/01/04 07:53:17;;;;;;;2.63;0.60;;;;;;;;;;4985794;28;20228;-84
2022/01/04 07:55:44;;;;;;;5.27;0.70;;;;;;;;;;5002646;28;20266;-83
2022/01/04 07:58:11;;;;;;;1.40;0.40;;;;;;;;;;5002334;28;20224;-83
2022/01/04 08:00:38;;;;;;;1.30;0.70;;;;;;;;;;4986004;28;20562;-83
2022/01/04 08:03:10;;;;;;;1.30;0.57;;;;;;;;;;4988065;28;20674;-82
2022/01/04 08:05:38;;;;;;;2.83;1.00;;;;;;;;;;4986225;28;20654;-82
2022/01/04 08:08:05;;;;;;;1.60;0.77;;;;;;;;;;4985954;28;20261;-83
2022/01/04 08:10:32;;;;;;;2.87;0.87;;;;;;;;;;4986983;28;20208;-82
2022/01/04 08:12:59;;;;;;;2.33;1.30;;;;;;;;;;4990812;28;20208;-84
2022/01/04 08:15:27;;;;;;;4.87;1.30;;;;;;;;;;4985728;28;20661;-83
2022/01/04 08:17:54;;;;;;;2.90;1.07;;;;;;;;;;4991258;28;20702;-84
2022/01/04 08:20:23;;;;;;;5.20;1.33;;;;;;;;;;4988298;28;20328;-84
2022/01/04 08:22:50;;;;;;;3.97;1.20;;;;;;;;;;4987791;28;20676;-84
2022/01/04 08:25:17;;;;;;;2.73;1.07;;;;;;;;;;4983796;28;20229;-82
2022/01/04 08:27:44;;;;;;;3.83;1.43;;;;;;;;;;4987520;28;20220;-83
2022/01/04 08:30:13;;;;;;;3.43;1.63;;;;;;;;;;4988354;28;20245;-84
2022/01/04 08:32:40;;;;;;;3.63;1.43;;;;;;;;;;4986055;28;20213;-82
2022/01/04 08:35:08;;;;;;;2.60;1.00;;;;;;;;;;4991802;28;20661;-83
2022/01/04 08:37:37;;;;;;;4.97;1.23;;;;;;;;;;4988687;28;20271;-83
2022/01/04 08:40:05;;;;;;;1.07;0.80;;;;;;;;;;4985428;28;20248;-82
2022/01/04 08:42:33;;;;;;;2.80;1.07;;;;;;;;;;4989517;28;20200;-82
2022/01/04 08:45:00;;;;;;;4.50;1.07;;;;;;;;;;4985655;28;20217;-82
2022/01/04 08:47:27;;;;;;;2.80;1.03;;;;;;;;;;4989491;28;20311;-84
2022/01/04 08:49:54;;;;;;;2.03;1.33;;;;;;;;;;4983633;28;20710;-83
2022/01/04 08:52:22;;;;;;;2.60;1.20;;;;;;;;;;4985066;28;20225;-82
2022/01/04 08:54:51;;;;;;;2.83;1.10;;;;;;;;;;4984718;28;20622;-83
2022/01/04 08:57:18;;;;;;;7.37;1.53;;;;;;;;;;4988444;28;20240;-82
2022/01/04 08:59:47;;;;;;;7.80;2.00;;;;;;;;;;4984950;28;20233;-84
2022/01/04 09:02:14;;;;;;;4.70;1.97;;;;;;;;;;5005917;28;20292;-82
2022/01/04 09:04:41;;;;;;;5.83;2.50;;;;;;;;;;4998390;28;20209;-83
2022/01/04 09:07:08;;;;;;;5.17;2.20;;;;;;;;;;4990090;28;20591;-84
2022/01/04 09:09:35;;;;;;;5.20;2.40;;;;;;;;;;4995490;28;20227;-83
2022/01/04 09:12:05;;;;;;;5.53;3.30;;;;;;;;;;4997964;28;20213;-85
2022/01/04 09:14:43;;;;;;;6.23;3.33;;;;;;;;;;4983665;28;20620;-83
2022/01/04 09:19:55;;;;;;;6.50;3.33;;;;;;;;;;4982652;28;20236;-83
2022/01/04 09:22:23;;;;;;;7.00;3.67;;;;;;;;;;4982868;28;20331;-82
2022/01/04 09:24:50;;;;;;;8.33;3.57;;;;;;;;;;4985820;28;20201;-83
2022/01/04 09:27:19;;;;;;;10.53;3.00;;;;;;;;;;4987396;28;20222;-82
2022/01/04 09:29:46;;;;;;;10.33;2.60;;;;;;;;;;4987199;28;20201;-82
2022/01/04 09:32:16;;;;;;;4.40;2.30;;;;;;;;;;4988042;28;20236;-82
2022/01/04 09:34:43;;;;;;;2.83;1.70;;;;;;;;;;4992794;28;20293;-83
2022/01/04 09:37:11;;;;;;;5.10;1.90;;;;;;;;;;4990660;28;20779;-82
2022/01/04 09:39:38;;;;;;;4.43;1.90;;;;;;;;;;4988330;28;20221;-83
2022/01/04 09:42:07;;;;;;;3.43;1.40;;;;;;;;;;4987336;28;20304;-83
2022/01/04 09:44:36;;;;;;;2.97;1.47;;;;;;;;;;4995899;28;20239;-82
2022/01/04 09:47:05;;;;;;;3.83;1.37;;;;;;;;;;4993059;28;20395;-82
2022/01/04 09:49:33;;;;;;;3.07;1.20;;;;;;;;;;4990561;28;20223;-82
2022/01/04 09:52:01;;;;;;;1.93;1.20;;;;;;;;;;4986865;28;20220;-82
2022/01/04 09:54:28;;;;;;;2.97;2.00;;;;;;;;;;4989694;28;20209;-82
2022/01/04 09:56:55;;;;;;;2.50;1.10;;;;;;;;;;4988687;28;20228;-82
2022/01/04 09:59:23;;;;;;;2.47;1.30;;;;;;;;;;4985970;28;20575;-82
2022/01/04 10:02:00;;;;;;;2.90;1.30;;;;;;;;;;4982122;28;20265;-82
2022/01/04 10:04:27;;;;;;;3.07;1.23;;;;;;;;;;4985210;28;20220;-82
2022/01/04 10:06:59;;;;;;;1.90;1.10;;;;;;;;;;4985254;28;20248;-82
2022/01/04 10:09:35;;;;;;;3.03;1.77;;;;;;;;;;4988401;28;20209;-82
2022/01/04 10:12:05;;;;;;;5.20;2.03;;;;;;;;;;4983159;28;20260;-82
2022/01/04 10:14:34;;;;;;;3.07;1.80;;;;;;;;;;4985792;28;20532;-82
2022/01/04 10:17:03;;;;;;;3.70;1.80;;;;;;;;;;4990543;28;20216;-82
2022/01/04 10:19:34;;;;;;;3.03;1.60;;;;;;;;;;4988962;28;20217;-82
2022/01/04 10:22:11;;;;;;;3.33;1.40;;;;;;;;;;4987008;28;20228;-82
2022/01/04 10:24:38;;;;;;;4.27;1.57;;;;;;;;;;4992850;28;20224;-82
2022/01/04 10:27:20;;;;;;;2.53;1.50;;;;;;;;;;4988811;28;20241;-83
2022/01/04 10:29:48;;;;;;;3.83;1.30;;;;;;;;;;4988651;28;20744;-83
2022/01/04 10:32:17;;;;;;;5.60;1.77;;;;;;;;;;4985940;28;20220;-82
2022/01/04 10:34:48;;;;;;;7.03;2.00;;;;;;;;;;4987560;28;20212;-83
2022/01/04 10:37:30;;;;;;;2.83;1.50;;;;;;;;;;4989260;28;20311;-82
2022/01/04 10:40:05;;;;;;;3.07;1.30;;;;;;;;;;4992981;28;20224;-83
2022/01/04 10:42:34;;;;;;;5.30;1.60;;;;;;;;;;4988729;28;20320;-82
2022/01/04 10:45:21;;;;;;;3.87;1.20;;;;;;;;;;4993010;28;20217;-82
2022/01/04 10:47:49;;;;;;;2.20;1.20;;;;;;;;;;4985524;28;20235;-83
2022/01/04 10:50:29;;;;;;;1.43;0.70;;;;;;;;;;4987512;28;20296;-82
2022/01/04 10:52:56;;;;;;;2.67;1.10;;;;;;;;;;4987952;28;20240;-82
2022/01/04 10:55:23;;;;;;;1.70;0.90;;;;;;;;;;4987377;28;20263;-82
2022/01/04 10:57:51;;;;;;;1.23;0.90;;;;;;;;;;4989121;28;20253;-82
2022/01/04 11:00:22;;;;;;;0.97;0.70;;;;;;;;;;4983068;28;20272;-82
2022/01/04 11:02:50;;;;;;;3.53;1.00;;;;;;;;;;4986819;28;20225;-82
2022/01/04 11:05:19;;;;;;;4.70;0.80;;;;;;;;;;4988492;28;20196;-81
2022/01/04 11:07:59;;;;;;;1.80;0.90;;;;;;;;;;4990670;28;20244;-81
2022/01/04 11:10:27;;;;;;;6.70;0.87;;;;;;;;;;4985392;28;20227;-82
2022/01/04 11:12:56;;;;;;;2.10;0.80;;;;;;;;;;4986543;28;20215;-83
2022/01/04 11:15:24;;;;;;;3.93;0.87;;;;;;;;;;4988129;28;20210;-81
2022/01/04 11:17:53;;;;;;;1.63;0.70;;;;;;;;;;4988460;28;20230;-82
2022/01/04 11:20:20;;;;;;;1.43;0.90;;;;;;;;;;4985069;28;20233;-82
2022/01/04 11:22:49;;;;;;;0.80;0.57;;;;;;;;;;4985117;28;20319;-81
2022/01/04 11:25:17;;;;;;;1.53;0.50;;;;;;;;;;4985153;28;20245;-81
2022/01/04 11:27:44;;;;;;;4.53;0.60;;;;;;;;;;4985410;28;20286;-82
2022/01/04 11:30:15;;;;;;;1.60;0.70;;;;;;;;;;4987574;28;20694;-82
2022/01/04 11:32:43;;;;;;;1.03;0.70;;;;;;;;;;4989790;28;20203;-81
2022/01/04 11:35:16;;;;;;;1.40;0.60;;;;;;;;;;4988826;28;20733;-82
2022/01/04 11:37:51;;;;;;;1.53;0.60;;;;;;;;;;4985213;28;20237;-81
2022/01/04 11:40:22;;;;;;;0.93;0.60;;;;;;;;;;4985943;28;20629;-82
2022/01/04 11:42:50;;;;;;;2.13;0.80;;;;;;;;;;4987029;28;20222;-82
2022/01/04 11:45:17;;;;;;;1.70;0.93;;;;;;;;;;4988731;28;20201;-82
2022/01/04 11:47:48;;;;;;;1.70;0.83;;;;;;;;;;4989163;28;20225;-81
2022/01/04 11:50:17;;;;;;;0.77;0.60;;;;;;;;;;4992180;28;20734;-82
2022/01/04 11:52:45;;;;;;;1.13;0.60;;;;;;;;;;4986894;28;20205;-81
2022/01/04 11:55:17;;;;;;;1.63;0.70;;;;;;;;;;4987430;28;20915;-82
2022/01/04 11:57:44;;;;;;;4.13;0.60;;;;;;;;;;4982427;28;20238;-82
2022/01/04 12:00:13;;;;;;;1.43;0.60;;;;;;;;;;4987464;28;20311;-82
2022/01/04 12:02:40;;;;;;;0.80;0.50;;;;;;;;;;4991817;28;20221;-82
2022/01/04 12:05:13;;;;;;;2.03;0.80;;;;;;;;;;4987270;28;20677;-82
2022/01/04 12:07:46;;;;;;;1.53;0.60;;;;;;;;;;4983074;28;20300;-82
2022/01/04 12:10:46;;;;;;;2.37;0.70;;;;;;;;;;4986693;28;20276;-82
2022/01/04 12:13:16;;;;;;;1.13;0.77;;;;;;;;;;4983502;28;20684;-81
2022/01/04 12:15:51;;;;;;;1.83;0.70;;;;;;;;;;4989564;28;20204;-82
2022/01/04 12:18:36;;;;;;;2.90;1.80;;;;;;;;;;4984781;28;20227;-82
2022/01/04 12:21:05;;;;;;;3.77;2.20;;;;;;;;;;4982966;28;20209;-82
2022/01/04 12:23:49;;;;;;;3.17;1.60;;;;;;;;;;4981618;28;20685;-82
2022/01/04 12:26:23;;;;;;;3.13;1.90;;;;;;;;;;4984843;28;20232;-82
2022/01/04 12:29:09;;;;;;;4.00;2.17;;;;;;;;;;4990000;28;20252;-82
2022/01/04 12:31:37;;;;;;;9.77;5.50;;;;;;;;;;4989923;28;20229;-82
2022/01/04 12:34:07;;;;;;;11.37;6.70;;;;;;;;;;4987387;28;20241;-81
2022/01/04 12:36:35;;;;;;;6.70;2.70;;;;;;;;;;4982776;28;20217;-81
2022/01/04 12:39:05;;;;;;;3.57;1.90;;;;;;;;;;4983478;28;20734;-82
2022/01/04 12:41:35;;;;;;;4.97;2.70;;;;;;;;;;4983080;28;20708;-82
2022/01/04 12:44:02;;;;;;;6.13;2.83;;;;;;;;;;4989492;28;20217;-82
2022/01/04 12:46:30;;;;;;;10.37;4.13;;;;;;;;;;4982543;28;20210;-82
2022/01/04 12:48:59;;;;;;;13.73;5.90;;;;;;;;;;4983884;28;20535;-84
2022/01/04 12:51:27;;;;;;;11.87;5.43;;;;;;;;;;4984029;28;20723;-81
2022/01/04 12:53:55;;;;;;;13.33;6.67;;;;;;;;;;4982960;28;20217;-81
2022/01/04 12:56:24;;;;;;;10.80;5.63;;;;;;;;;;4984148;28;20222;-81
2022/01/04 12:58:51;;;;;;;3.73;1.60;;;;;;;;;;4983984;28;20248;-81
2022/01/04 13:01:23;;;;;;;2.83;1.00;;;;;;;;;;4982754;28;20666;-81
2022/01/04 13:03:50;;;;;;;1.80;1.20;;;;;;;;;;4984958;28;20311;-81
2022/01/04 13:06:17;;;;;;;4.50;1.70;;;;;;;;;;4987582;28;20292;-82
2022/01/04 13:08:51;;;;;;;4.63;1.73;;;;;;;;;;4984640;28;20323;-82
2022/01/04 13:11:19;;;;;;;4.70;1.60;;;;;;;;;;4980642;28;20219;-82
2022/01/04 13:13:55;;;;;;;3.33;1.53;;;;;;;;;;4984746;28;20216;-82
2022/01/04 13:16:22;;;;;;;1.37;1.17;;;;;;;;;;4984394;28;20201;-82
2022/01/04 13:18:50;;;;;;;3.00;1.10;;;;;;;;;;4986507;28;20324;-81
2022/01/04 13:21:18;;;;;;;3.57;1.37;;;;;;;;;;4981300;28;20267;-82
2022/01/04 13:23:45;;;;;;;1.80;1.20;;;;;;;;;;4987904;28;20209;-82
2022/01/04 13:26:13;;;;;;;1.77;1.10;;;;;;;;;;4983146;28;20211;-82
2022/01/04 13:28:40;;;;;;;1.77;1.13;;;;;;;;;;4989095;28;20299;-81
2022/01/04 13:31:20;;;;;;;1.40;0.70;;;;;;;;;;4982129;28;20244;-82
2022/01/04 13:33:47;;;;;;;1.13;0.80;;;;;;;;;;4988311;28;20627;-82
2022/01/04 13:36:14;;;;;;;1.53;0.90;;;;;;;;;;4984456;28;20219;-82
2022/01/04 13:38:41;;;;;;;0.97;0.50;;;;;;;;;;4983203;28;20308;-82
2022/01/04 13:41:09;;;;;;;1.40;1.03;;;;;;;;;;4981988;28;20745;-82
2022/01/04 13:43:45;;;;;;;3.10;1.70;;;;;;;;;;4983746;28;20225;-82
2022/01/04 13:46:15;;;;;;;4.63;1.97;;;;;;;;;;4984173;28;20227;-82
2022/01/04 13:48:43;;;;;;;3.03;1.93;;;;;;;;;;4987478;28;20233;-82
2022/01/04 13:51:12;;;;;;;1.73;0.97;;;;;;;;;;4991587;28;20209;-82
2022/01/04 13:53:40;;;;;;;4.27;0.77;;;;;;;;;;4984019;28;20248;-82
2022/01/04 13:56:08;;;;;;;3.20;1.90;;;;;;;;;;4982688;28;20220;-83
2022/01/04 13:58:50;;;;;;;3.90;2.17;;;;;;;;;;4983241;28;20225;-82
2022/01/04 14:01:29;;;;;;;5.23;2.90;;;;;;;;;;4982633;28;20220;-82
2022/01/04 14:03:57;;;;;;;3.33;1.83;;;;;;;;;;4987557;28;20661;-82
2022/01/04 14:06:29;;;;;;;3.50;1.43;;;;;;;;;;4987613;28;20281;-82
2022/01/04 14:08:56;;;;;;;1.87;1.00;;;;;;;;;;4984890;28;20241;-82
2022/01/04 14:11:24;;;;;;;1.80;0.60;;;;;;;;;;4983070;28;20211;-82
2022/01/04 14:13:51;;;;;;;2.53;0.73;;;;;;;;;;4987590;28;20209;-82
2022/01/04 14:16:19;;;;;;;2.50;0.90;;;;;;;;;;4988358;28;20299;-83
2022/01/04 14:19:04;;;;;;;1.63;0.90;;;;;;;;;;4987340;28;20221;-82
2022/01/04 14:21:34;;;;;;;1.67;0.93;;;;;;;;;;4978810;28;20217;-83
2022/01/04 14:24:01;;;;;;;1.10;0.80;;;;;;;;;;4987295;28;20233;-83
2022/01/04 14:26:29;;;;;;;1.80;0.80;;;;;;;;;;4982617;28;20332;-83
2022/01/04 14:28:56;;;;;;;2.00;0.80;;;;;;;;;;4986920;28;20236;-83
2022/01/04 14:31:24;;;;;;;1.33;0.70;;;;;;;;;;4990017;28;20205;-82
2022/01/04 14:33:51;;;;;;;10.97;5.00;;;;;;;;;;4987270;28;20293;-83
2022/01/04 14:36:18;;;;;;;6.87;3.23;;;;;;;;;;4993431;28;20374;-83
2022/01/04 14:38:46;;;;;;;4.17;2.40;;;;;;;;;;4985673;28;20312;-83
2022/01/04 14:41:14;;;;;;;4.90;2.00;;;;;;;;;;4991596;28;20685;-83
2022/01/04 14:43:41;;;;;;;1.77;1.07;;;;;;;;;;4986010;28;20316;-83
2022/01/04 14:46:09;;;;;;;13.80;5.60;;;;;;;;;;4986303;28;20220;-83
2022/01/04 14:48:37;;;;;;;22.60;9.63;;;;;;;;;;4986497;28;20820;-83
2022/01/04 14:51:04;;;;;;;12.20;6.67;;;;;;;;;;4986650;28;20225;-83
2022/01/04 14:53:31;;;;;;;11.77;5.50;;;;;;;;;;4987365;28;20288;-83
2022/01/04 14:56:00;;;;;;;4.83;2.50;;;;;;;;;;4987874;28;20214;-83
2022/01/04 14:58:27;;;;;;;5.00;2.97;;;;;;;;;;4983778;28;20265;-83
2022/01/04 15:00:54;;;;;;;9.23;4.07;;;;;;;;;;4988857;28;20235;-83